Terminal Aerodrome Forecast
Issued by NWS Missoula, MT

Home | Current Version | Previous Version | Text Only | Print | Product List | Glossary On
Versions: 1 2 3 4 5 6 7 8 9 10 11 12 13 14 15 16 17 18 19 20 21 22 23 24 25 26 27 28 29 30 31 32 33 34 35 36 37 38 39 40 41 42 43 44 45 46
692
FTUS45 KMSO 170535
TAFMSO
TAF
KMSO 170535Z 1706/1806 VRB03KT P6SM OVC070
     FM171000 30002KT P6SM VCSH OVC050
     FM171800 24004KT P6SM -SHRA BKN030 OVC050
     FM172200 32005KT P6SM VCSH OVC050=

USA.gov is the U.S. government's official web portal to all federal, state and local government web resources and services.